sensor_id;sensor_type;location;lat;lon;timestamp;P1;durP1;ratioP1;P2;durP2;ratioP2
8642;SDS011;4359;49.358;11.256;2023-08-06T00:00:08;6.65;;;4.55;;
8642;SDS011;4359;49.358;11.256;2023-08-06T00:02:34;7.85;;;4.82;;
8642;SDS011;4359;49.358;11.256;2023-08-06T00:05:00;6.47;;;4.50;;
8642;SDS011;4359;49.358;11.256;2023-08-06T00:07:26;8.93;;;5.07;;
8642;SDS011;4359;49.358;11.256;2023-08-06T00:09:51;8.63;;;5.00;;
8642;SDS011;4359;49.358;11.256;2023-08-06T00:12:17;9.27;;;4.80;;
8642;SDS011;4359;49.358;11.256;2023-08-06T00:14:43;6.88;;;4.70;;
8642;SDS011;4359;49.358;11.256;2023-08-06T00:17:09;8.30;;;5.28;;
8642;SDS011;4359;49.358;11.256;2023-08-06T00:19:35;7.30;;;4.70;;
8642;SDS011;4359;49.358;11.256;2023-08-06T00:22:00;7.40;;;4.68;;
8642;SDS011;4359;49.358;11.256;2023-08-06T00:24:27;7.00;;;4.70;;
8642;SDS011;4359;49.358;11.256;2023-08-06T00:26:52;10.85;;;5.55;;
8642;SDS011;4359;49.358;11.256;2023-08-06T00:29:18;7.63;;;5.50;;
8642;SDS011;4359;49.358;11.256;2023-08-06T00:31:44;8.15;;;5.60;;
8642;SDS011;4359;49.358;11.256;2023-08-06T00:34:09;10.50;;;5.90;;
8642;SDS011;4359;49.358;11.256;2023-08-06T00:36:35;10.43;;;5.85;;
8642;SDS011;4359;49.358;11.256;2023-08-06T00:39:01;7.70;;;6.18;;
8642;SDS011;4359;49.358;11.256;2023-08-06T00:41:27;8.77;;;6.05;;
8642;SDS011;4359;49.358;11.256;2023-08-06T00:43:53;8.98;;;6.13;;
8642;SDS011;4359;49.358;11.256;2023-08-06T00:46:18;9.88;;;5.68;;
8642;SDS011;4359;49.358;11.256;2023-08-06T00:48:44;7.32;;;5.60;;
8642;SDS011;4359;49.358;11.256;2023-08-06T00:51:10;7.45;;;5.53;;
8642;SDS011;4359;49.358;11.256;2023-08-06T00:53:37;7.72;;;5.63;;
8642;SDS011;4359;49.358;11.256;2023-08-06T00:56:04;6.78;;;5.00;;
8642;SDS011;4359;49.358;11.256;2023-08-06T00:58:31;7.93;;;6.03;;
8642;SDS011;4359;49.358;11.256;2023-08-06T01:00:57;8.77;;;5.75;;
8642;SDS011;4359;49.358;11.256;2023-08-06T01:03:22;9.65;;;6.25;;
8642;SDS011;4359;49.358;11.256;2023-08-06T01:05:48;7.60;;;5.63;;
8642;SDS011;4359;49.358;11.256;2023-08-06T01:16:11;9.90;;;5.70;;
8642;SDS011;4359;49.358;11.256;2023-08-06T01:18:42;8.18;;;5.22;;
8642;SDS011;4359;49.358;11.256;2023-08-06T01:21:11;6.70;;;5.30;;
8642;SDS011;4359;49.358;11.256;2023-08-06T01:23:37;7.63;;;5.30;;
8642;SDS011;4359;49.358;11.256;2023-08-06T01:26:23;6.75;;;5.03;;
8642;SDS011;4359;49.358;11.256;2023-08-06T01:29:31;6.13;;;4.60;;
8642;SDS011;4359;49.358;11.256;2023-08-06T01:31:50;6.38;;;5.10;;
8642;SDS011;4359;49.358;11.256;2023-08-06T01:34:20;8.77;;;6.00;;
8642;SDS011;4359;49.358;11.256;2023-08-06T01:36:47;7.60;;;4.85;;
8642;SDS011;4359;49.358;11.256;2023-08-06T01:39:13;8.90;;;5.38;;
8642;SDS011;4359;49.358;11.256;2023-08-06T01:41:39;7.75;;;5.30;;
8642;SDS011;4359;49.358;11.256;2023-08-06T01:44:04;9.05;;;6.20;;
8642;SDS011;4359;49.358;11.256;2023-08-06T01:46:30;9.15;;;6.20;;
8642;SDS011;4359;49.358;11.256;2023-08-06T01:48:55;10.38;;;6.40;;
8642;SDS011;4359;49.358;11.256;2023-08-06T01:51:21;7.57;;;5.60;;
8642;SDS011;4359;49.358;11.256;2023-08-06T01:53:47;7.28;;;5.50;;
8642;SDS011;4359;49.358;11.256;2023-08-06T01:56:12;10.63;;;5.70;;
8642;SDS011;4359;49.358;11.256;2023-08-06T01:58:38;9.20;;;5.75;;
8642;SDS011;4359;49.358;11.256;2023-08-06T02:01:03;9.60;;;6.00;;
8642;SDS011;4359;49.358;11.256;2023-08-06T02:03:29;10.73;;;6.63;;
8642;SDS011;4359;49.358;11.256;2023-08-06T02:05:55;8.27;;;5.97;;
8642;SDS011;4359;49.358;11.256;2023-08-06T02:08:20;7.25;;;5.40;;
8642;SDS011;4359;49.358;11.256;2023-08-06T02:10:46;7.57;;;5.95;;
8642;SDS011;4359;49.358;11.256;2023-08-06T02:13:12;8.57;;;6.25;;
8642;SDS011;4359;49.358;11.256;2023-08-06T02:15:46;10.40;;;6.43;;
8642;SDS011;4359;49.358;11.256;2023-08-06T02:18:13;7.22;;;5.47;;
8642;SDS011;4359;49.358;11.256;2023-08-06T02:20:40;9.60;;;5.55;;
8642;SDS011;4359;49.358;11.256;2023-08-06T02:23:05;8.05;;;5.68;;
8642;SDS011;4359;49.358;11.256;2023-08-06T02:25:31;7.78;;;5.68;;
8642;SDS011;4359;49.358;11.256;2023-08-06T02:27:57;6.60;;;5.28;;
8642;SDS011;4359;49.358;11.256;2023-08-06T02:30:22;7.68;;;5.57;;
8642;SDS011;4359;49.358;11.256;2023-08-06T02:32:48;9.15;;;6.28;;
8642;SDS011;4359;49.358;11.256;2023-08-06T02:35:14;8.05;;;6.13;;
8642;SDS011;4359;49.358;11.256;2023-08-06T02:37:39;8.38;;;5.93;;
8642;SDS011;4359;49.358;11.256;2023-08-06T02:40:05;9.50;;;6.55;;
8642;SDS011;4359;49.358;11.256;2023-08-06T02:42:31;8.00;;;6.07;;
8642;SDS011;4359;49.358;11.256;2023-08-06T02:44:57;7.38;;;5.68;;
8642;SDS011;4359;49.358;11.256;2023-08-06T02:47:23;8.45;;;6.35;;
8642;SDS011;4359;49.358;11.256;2023-08-06T02:49:48;11.88;;;6.28;;
8642;SDS011;4359;49.358;11.256;2023-08-06T02:52:14;10.77;;;6.55;;
8642;SDS011;4359;49.358;11.256;2023-08-06T02:54:40;8.95;;;5.30;;
8642;SDS011;4359;49.358;11.256;2023-08-06T02:57:06;7.78;;;5.00;;
8642;SDS011;4359;49.358;11.256;2023-08-06T02:59:32;6.85;;;5.22;;
8642;SDS011;4359;49.358;11.256;2023-08-06T03:01:57;8.32;;;5.80;;
8642;SDS011;4359;49.358;11.256;2023-08-06T03:04:23;7.13;;;5.38;;
8642;SDS011;4359;49.358;11.256;2023-08-06T03:06:49;7.25;;;5.43;;
8642;SDS011;4359;49.358;11.256;2023-08-06T03:09:15;8.02;;;6.35;;
8642;SDS011;4359;49.358;11.256;2023-08-06T03:11:41;8.73;;;6.38;;
8642;SDS011;4359;49.358;11.256;2023-08-06T03:14:07;7.53;;;6.10;;
8642;SDS011;4359;49.358;11.256;2023-08-06T03:16:33;8.98;;;5.90;;
8642;SDS011;4359;49.358;11.256;2023-08-06T03:18:59;7.53;;;6.18;;
8642;SDS011;4359;49.358;11.256;2023-08-06T03:21:24;7.82;;;6.30;;
8642;SDS011;4359;49.358;11.256;2023-08-06T03:23:50;7.88;;;6.50;;
8642;SDS011;4359;49.358;11.256;2023-08-06T03:26:15;8.05;;;6.13;;
8642;SDS011;4359;49.358;11.256;2023-08-06T03:28:41;7.82;;;6.32;;
8642;SDS011;4359;49.358;11.256;2023-08-06T03:31:07;8.18;;;6.25;;
8642;SDS011;4359;49.358;11.256;2023-08-06T03:33:33;7.57;;;5.07;;
8642;SDS011;4359;49.358;11.256;2023-08-06T03:35:58;6.75;;;5.28;;
8642;SDS011;4359;49.358;11.256;2023-08-06T03:38:24;8.63;;;5.45;;
8642;SDS011;4359;49.358;11.256;2023-08-06T03:40:50;8.10;;;4.95;;
8642;SDS011;4359;49.358;11.256;2023-08-06T03:43:15;8.40;;;5.05;;
8642;SDS011;4359;49.358;11.256;2023-08-06T03:45:41;5.43;;;4.35;;
8642;SDS011;4359;49.358;11.256;2023-08-06T03:48:07;6.97;;;4.43;;
8642;SDS011;4359;49.358;11.256;2023-08-06T03:50:33;6.93;;;5.00;;
8642;SDS011;4359;49.358;11.256;2023-08-06T03:52:59;6.53;;;4.72;;
8642;SDS011;4359;49.358;11.256;2023-08-06T03:55:25;7.05;;;4.38;;
8642;SDS011;4359;49.358;11.256;2023-08-06T03:57:51;5.82;;;4.70;;
8642;SDS011;4359;49.358;11.256;2023-08-06T04:00:16;6.38;;;4.70;;
8642;SDS011;4359;49.358;11.256;2023-08-06T04:02:42;7.70;;;4.65;;
8642;SDS011;4359;49.358;11.256;2023-08-06T04:05:08;6.50;;;4.72;;
8642;SDS011;4359;49.358;11.256;2023-08-06T04:07:34;7.95;;;4.45;;
8642;SDS011;4359;49.358;11.256;2023-08-06T04:10:03;8.10;;;4.68;;
8642;SDS011;4359;49.358;11.256;2023-08-06T04:12:30;6.22;;;4.72;;
8642;SDS011;4359;49.358;11.256;2023-08-06T04:14:57;6.90;;;5.18;;
8642;SDS011;4359;49.358;11.256;2023-08-06T04:17:24;7.25;;;5.22;;
8642;SDS011;4359;49.358;11.256;2023-08-06T04:19:50;7.95;;;6.03;;
8642;SDS011;4359;49.358;11.256;2023-08-06T04:22:17;6.93;;;5.20;;
8642;SDS011;4359;49.358;11.256;2023-08-06T04:24:43;8.80;;;5.32;;
8642;SDS011;4359;49.358;11.256;2023-08-06T04:27:09;7.20;;;5.30;;
8642;SDS011;4359;49.358;11.256;2023-08-06T04:29:36;7.05;;;5.20;;
8642;SDS011;4359;49.358;11.256;2023-08-06T04:32:03;7.50;;;5.28;;
8642;SDS011;4359;49.358;11.256;2023-08-06T04:34:30;6.68;;;4.95;;
8642;SDS011;4359;49.358;11.256;2023-08-06T04:36:56;8.82;;;5.35;;
8642;SDS011;4359;49.358;11.256;2023-08-06T04:39:21;8.93;;;5.57;;
8642;SDS011;4359;49.358;11.256;2023-08-06T04:41:47;5.68;;;4.47;;
8642;SDS011;4359;49.358;11.256;2023-08-06T04:44:12;6.68;;;5.40;;
8642;SDS011;4359;49.358;11.256;2023-08-06T04:46:38;6.18;;;5.07;;
8642;SDS011;4359;49.358;11.256;2023-08-06T04:49:04;6.00;;;4.90;;
8642;SDS011;4359;49.358;11.256;2023-08-06T04:51:29;11.82;;;5.80;;
8642;SDS011;4359;49.358;11.256;2023-08-06T04:53:56;9.10;;;6.43;;
8642;SDS011;4359;49.358;11.256;2023-08-06T04:56:22;7.22;;;5.88;;
8642;SDS011;4359;49.358;11.256;2023-08-06T04:58:48;7.80;;;6.18;;
8642;SDS011;4359;49.358;11.256;2023-08-06T05:01:13;7.40;;;5.47;;
8642;SDS011;4359;49.358;11.256;2023-08-06T05:03:39;9.13;;;6.53;;
8642;SDS011;4359;49.358;11.256;2023-08-06T05:06:05;9.35;;;7.32;;
8642;SDS011;4359;49.358;11.256;2023-08-06T05:08:30;9.00;;;6.43;;
8642;SDS011;4359;49.358;11.256;2023-08-06T05:10:56;10.50;;;7.03;;
8642;SDS011;4359;49.358;11.256;2023-08-06T05:13:22;8.20;;;6.38;;
8642;SDS011;4359;49.358;11.256;2023-08-06T05:15:47;8.95;;;7.18;;
8642;SDS011;4359;49.358;11.256;2023-08-06T05:18:13;9.60;;;6.57;;
8642;SDS011;4359;49.358;11.256;2023-08-06T05:20:40;8.85;;;6.00;;
8642;SDS011;4359;49.358;11.256;2023-08-06T05:23:06;9.05;;;6.03;;
8642;SDS011;4359;49.358;11.256;2023-08-06T05:25:34;7.47;;;6.15;;
8642;SDS011;4359;49.358;11.256;2023-08-06T05:28:00;7.72;;;6.30;;
8642;SDS011;4359;49.358;11.256;2023-08-06T05:30:26;7.40;;;5.95;;
8642;SDS011;4359;49.358;11.256;2023-08-06T05:32:52;8.55;;;6.03;;
8642;SDS011;4359;49.358;11.256;2023-08-06T05:35:18;9.70;;;6.18;;
8642;SDS011;4359;49.358;11.256;2023-08-06T05:37:43;8.15;;;5.18;;
8642;SDS011;4359;49.358;11.256;2023-08-06T05:40:09;8.88;;;5.10;;
8642;SDS011;4359;49.358;11.256;2023-08-06T05:42:35;6.50;;;4.75;;
8642;SDS011;4359;49.358;11.256;2023-08-06T05:45:00;7.38;;;4.82;;
8642;SDS011;4359;49.358;11.256;2023-08-06T05:47:26;9.07;;;4.60;;
8642;SDS011;4359;49.358;11.256;2023-08-06T05:49:52;5.80;;;4.50;;
8642;SDS011;4359;49.358;11.256;2023-08-06T05:52:17;9.52;;;4.70;;
8642;SDS011;4359;49.358;11.256;2023-08-06T05:54:43;8.18;;;4.80;;
8642;SDS011;4359;49.358;11.256;2023-08-06T05:57:09;6.88;;;4.25;;
8642;SDS011;4359;49.358;11.256;2023-08-06T05:59:34;6.10;;;4.45;;
8642;SDS011;4359;49.358;11.256;2023-08-06T06:02:00;4.38;;;3.55;;
8642;SDS011;4359;49.358;11.256;2023-08-06T06:04:26;5.78;;;3.25;;
8642;SDS011;4359;49.358;11.256;2023-08-06T06:06:51;5.38;;;3.35;;
8642;SDS011;4359;49.358;11.256;2023-08-06T06:09:17;7.00;;;3.75;;
8642;SDS011;4359;49.358;11.256;2023-08-06T06:11:43;4.20;;;3.33;;
8642;SDS011;4359;49.358;11.256;2023-08-06T06:14:08;5.68;;;3.53;;
8642;SDS011;4359;49.358;11.256;2023-08-06T06:16:34;4.22;;;3.33;;
8642;SDS011;4359;49.358;11.256;2023-08-06T06:18:59;7.95;;;3.50;;
8642;SDS011;4359;49.358;11.256;2023-08-06T06:21:25;6.38;;;3.08;;
8642;SDS011;4359;49.358;11.256;2023-08-06T06:23:51;6.53;;;3.78;;
8642;SDS011;4359;49.358;11.256;2023-08-06T06:26:17;5.70;;;3.97;;
8642;SDS011;4359;49.358;11.256;2023-08-06T06:28:45;7.47;;;3.50;;
8642;SDS011;4359;49.358;11.256;2023-08-06T06:31:11;8.50;;;3.58;;
8642;SDS011;4359;49.358;11.256;2023-08-06T06:33:36;5.43;;;3.22;;
8642;SDS011;4359;49.358;11.256;2023-08-06T06:36:02;5.28;;;3.00;;
8642;SDS011;4359;49.358;11.256;2023-08-06T06:38:28;6.68;;;3.55;;
8642;SDS011;4359;49.358;11.256;2023-08-06T06:40:55;5.75;;;3.20;;
8642;SDS011;4359;49.358;11.256;2023-08-06T06:43:21;3.53;;;2.92;;
8642;SDS011;4359;49.358;11.256;2023-08-06T06:45:47;4.63;;;3.35;;
8642;SDS011;4359;49.358;11.256;2023-08-06T06:48:25;4.75;;;2.90;;
8642;SDS011;4359;49.358;11.256;2023-08-06T06:50:51;3.55;;;2.70;;
8642;SDS011;4359;49.358;11.256;2023-08-06T06:53:20;13.88;;;3.47;;
8642;SDS011;4359;49.358;11.256;2023-08-06T06:55:48;13.05;;;3.00;;
8642;SDS011;4359;49.358;11.256;2023-08-06T06:58:14;6.18;;;3.20;;
8642;SDS011;4359;49.358;11.256;2023-08-06T07:00:41;7.47;;;2.90;;
8642;SDS011;4359;49.358;11.256;2023-08-06T07:03:07;5.35;;;3.55;;
8642;SDS011;4359;49.358;11.256;2023-08-06T07:05:33;5.18;;;3.50;;
8642;SDS011;4359;49.358;11.256;2023-08-06T07:07:58;6.18;;;3.65;;
8642;SDS011;4359;49.358;11.256;2023-08-06T07:10:24;5.15;;;4.00;;
8642;SDS011;4359;49.358;11.256;2023-08-06T07:12:50;5.95;;;3.60;;
8642;SDS011;4359;49.358;11.256;2023-08-06T07:15:16;10.02;;;3.50;;
8642;SDS011;4359;49.358;11.256;2023-08-06T07:17:42;5.20;;;3.22;;
8642;SDS011;4359;49.358;11.256;2023-08-06T07:20:08;5.03;;;3.58;;
8642;SDS011;4359;49.358;11.256;2023-08-06T07:22:34;4.30;;;3.40;;
8642;SDS011;4359;49.358;11.256;2023-08-06T07:25:00;5.60;;;3.45;;
8642;SDS011;4359;49.358;11.256;2023-08-06T07:27:26;5.82;;;3.30;;
8642;SDS011;4359;49.358;11.256;2023-08-06T07:29:52;6.18;;;3.53;;
8642;SDS011;4359;49.358;11.256;2023-08-06T07:32:17;8.10;;;3.03;;
8642;SDS011;4359;49.358;11.256;2023-08-06T07:34:43;8.57;;;3.10;;
8642;SDS011;4359;49.358;11.256;2023-08-06T07:37:09;4.80;;;3.20;;
8642;SDS011;4359;49.358;11.256;2023-08-06T07:39:34;5.05;;;3.20;;
8642;SDS011;4359;49.358;11.256;2023-08-06T07:42:02;6.50;;;3.28;;
8642;SDS011;4359;49.358;11.256;2023-08-06T07:44:30;5.47;;;3.50;;
8642;SDS011;4359;49.358;11.256;2023-08-06T07:46:56;7.00;;;3.05;;
8642;SDS011;4359;49.358;11.256;2023-08-06T07:49:22;5.68;;;3.20;;
8642;SDS011;4359;49.358;11.256;2023-08-06T07:51:47;4.50;;;2.83;;
8642;SDS011;4359;49.358;11.256;2023-08-06T07:54:13;5.47;;;3.30;;
8642;SDS011;4359;49.358;11.256;2023-08-06T07:56:39;6.25;;;3.20;;
8642;SDS011;4359;49.358;11.256;2023-08-06T07:59:05;5.20;;;3.15;;
8642;SDS011;4359;49.358;11.256;2023-08-06T08:01:30;4.75;;;2.88;;
8642;SDS011;4359;49.358;11.256;2023-08-06T08:03:56;5.72;;;3.20;;
8642;SDS011;4359;49.358;11.256;2023-08-06T08:06:21;5.15;;;2.90;;
8642;SDS011;4359;49.358;11.256;2023-08-06T08:08:48;5.13;;;2.80;;
8642;SDS011;4359;49.358;11.256;2023-08-06T08:11:13;4.88;;;3.25;;
8642;SDS011;4359;49.358;11.256;2023-08-06T08:13:41;5.75;;;3.15;;
8642;SDS011;4359;49.358;11.256;2023-08-06T08:16:06;5.25;;;2.85;;
8642;SDS011;4359;49.358;11.256;2023-08-06T08:18:32;3.45;;;2.30;;
8642;SDS011;4359;49.358;11.256;2023-08-06T08:20:58;6.30;;;2.72;;
8642;SDS011;4359;49.358;11.256;2023-08-06T08:23:24;4.80;;;2.40;;
8642;SDS011;4359;49.358;11.256;2023-08-06T08:25:49;4.30;;;2.28;;
8642;SDS011;4359;49.358;11.256;2023-08-06T08:28:15;3.80;;;2.03;;
8642;SDS011;4359;49.358;11.256;2023-08-06T08:30:42;3.40;;;2.00;;
8642;SDS011;4359;49.358;11.256;2023-08-06T08:33:07;3.00;;;1.92;;
8642;SDS011;4359;49.358;11.256;2023-08-06T08:35:34;3.90;;;2.00;;
8642;SDS011;4359;49.358;11.256;2023-08-06T08:38:01;3.85;;;2.03;;
8642;SDS011;4359;49.358;11.256;2023-08-06T08:40:29;6.95;;;1.65;;
8642;SDS011;4359;49.358;11.256;2023-08-06T08:42:57;4.75;;;2.17;;
8642;SDS011;4359;49.358;11.256;2023-08-06T08:45:24;3.20;;;1.60;;
8642;SDS011;4359;49.358;11.256;2023-08-06T08:47:54;3.03;;;1.45;;
8642;SDS011;4359;49.358;11.256;2023-08-06T08:50:20;3.60;;;1.05;;
8642;SDS011;4359;49.358;11.256;2023-08-06T08:52:46;1.67;;;0.75;;
8642;SDS011;4359;49.358;11.256;2023-08-06T08:55:14;3.08;;;1.02;;
8642;SDS011;4359;49.358;11.256;2023-08-06T08:57:40;2.47;;;1.00;;
8642;SDS011;4359;49.358;11.256;2023-08-06T09:00:06;1.95;;;0.80;;
8642;SDS011;4359;49.358;11.256;2023-08-06T09:02:32;1.50;;;0.70;;
8642;SDS011;4359;49.358;11.256;2023-08-06T09:04:59;2.20;;;0.88;;
8642;SDS011;4359;49.358;11.256;2023-08-06T09:07:31;2.17;;;0.90;;
8642;SDS011;4359;49.358;11.256;2023-08-06T09:10:01;3.60;;;0.68;;
8642;SDS011;4359;49.358;11.256;2023-08-06T09:12:30;1.65;;;0.80;;
8642;SDS011;4359;49.358;11.256;2023-08-06T09:14:56;1.90;;;0.70;;
8642;SDS011;4359;49.358;11.256;2023-08-06T09:17:22;1.13;;;0.47;;
8642;SDS011;4359;49.358;11.256;2023-08-06T09:19:48;1.08;;;0.30;;
8642;SDS011;4359;49.358;11.256;2023-08-06T09:22:14;1.23;;;0.30;;
8642;SDS011;4359;49.358;11.256;2023-08-06T09:24:40;2.53;;;0.38;;
8642;SDS011;4359;49.358;11.256;2023-08-06T09:27:10;0.90;;;0.30;;
8642;SDS011;4359;49.358;11.256;2023-08-06T09:29:39;1.70;;;0.40;;
8642;SDS011;4359;49.358;11.256;2023-08-06T09:32:06;1.33;;;0.40;;
8642;SDS011;4359;49.358;11.256;2023-08-06T09:34:32;0.80;;;0.30;;
8642;SDS011;4359;49.358;11.256;2023-08-06T09:36:58;1.85;;;0.30;;
8642;SDS011;4359;49.358;11.256;2023-08-06T09:39:27;1.20;;;0.30;;
8642;SDS011;4359;49.358;11.256;2023-08-06T09:41:57;1.02;;;0.30;;
8642;SDS011;4359;49.358;11.256;2023-08-06T09:44:24;1.42;;;0.30;;
8642;SDS011;4359;49.358;11.256;2023-08-06T09:49:18;2.30;;;0.40;;
8642;SDS011;4359;49.358;11.256;2023-08-06T09:51:46;0.60;;;0.20;;
8642;SDS011;4359;49.358;11.256;2023-08-06T09:54:15;2.63;;;0.47;;
8642;SDS011;4359;49.358;11.256;2023-08-06T09:56:42;0.82;;;0.30;;
8642;SDS011;4359;49.358;11.256;2023-08-06T09:59:08;0.65;;;0.20;;
8642;SDS011;4359;49.358;11.256;2023-08-06T10:01:36;0.68;;;0.30;;
8642;SDS011;4359;49.358;11.256;2023-08-06T10:04:03;0.90;;;0.30;;
8642;SDS011;4359;49.358;11.256;2023-08-06T10:06:31;1.30;;;0.20;;
8642;SDS011;4359;49.358;11.256;2023-08-06T10:09:00;3.00;;;0.30;;
8642;SDS011;4359;49.358;11.256;2023-08-06T10:11:26;1.23;;;0.30;;
8642;SDS011;4359;49.358;11.256;2023-08-06T10:14:02;1.10;;;0.30;;
8642;SDS011;4359;49.358;11.256;2023-08-06T10:16:35;0.85;;;0.30;;
8642;SDS011;4359;49.358;11.256;2023-08-06T10:19:03;0.52;;;0.22;;
8642;SDS011;4359;49.358;11.256;2023-08-06T10:21:30;1.30;;;0.30;;
8642;SDS011;4359;49.358;11.256;2023-08-06T10:23:57;0.60;;;0.28;;
8642;SDS011;4359;49.358;11.256;2023-08-06T10:26:29;1.27;;;0.30;;
8642;SDS011;4359;49.358;11.256;2023-08-06T10:28:55;1.00;;;0.30;;
8642;SDS011;4359;49.358;11.256;2023-08-06T10:34:22;2.88;;;0.30;;
8642;SDS011;4359;49.358;11.256;2023-08-06T10:36:48;1.70;;;0.50;;
8642;SDS011;4359;49.358;11.256;2023-08-06T10:39:14;0.82;;;0.30;;
8642;SDS011;4359;49.358;11.256;2023-08-06T10:41:41;2.17;;;0.30;;
8642;SDS011;4359;49.358;11.256;2023-08-06T10:44:09;2.03;;;0.30;;
8642;SDS011;4359;49.358;11.256;2023-08-06T10:46:35;0.80;;;0.30;;
8642;SDS011;4359;49.358;11.256;2023-08-06T10:49:02;0.73;;;0.20;;
8642;SDS011;4359;49.358;11.256;2023-08-06T10:51:28;0.80;;;0.20;;
8642;SDS011;4359;49.358;11.256;2023-08-06T10:53:54;0.88;;;0.30;;
8642;SDS011;4359;49.358;11.256;2023-08-06T10:56:21;0.70;;;0.20;;
8642;SDS011;4359;49.358;11.256;2023-08-06T10:58:47;1.67;;;0.20;;
8642;SDS011;4359;49.358;11.256;2023-08-06T11:01:14;0.88;;;0.30;;
8642;SDS011;4359;49.358;11.256;2023-08-06T11:03:41;0.50;;;0.20;;
8642;SDS011;4359;49.358;11.256;2023-08-06T11:06:08;0.63;;;0.20;;
8642;SDS011;4359;49.358;11.256;2023-08-06T11:08:37;0.60;;;0.22;;
8642;SDS011;4359;49.358;11.256;2023-08-06T11:11:13;0.30;;;0.20;;
8642;SDS011;4359;49.358;11.256;2023-08-06T11:13:43;0.20;;;0.10;;
8642;SDS011;4359;49.358;11.256;2023-08-06T11:16:11;1.08;;;0.22;;
8642;SDS011;4359;49.358;11.256;2023-08-06T11:18:38;0.35;;;0.10;;
8642;SDS011;4359;49.358;11.256;2023-08-06T11:21:05;1.27;;;0.38;;
8642;SDS011;4359;49.358;11.256;2023-08-06T11:23:31;1.90;;;0.40;;
8642;SDS011;4359;49.358;11.256;2023-08-06T11:25:57;1.05;;;0.20;;
8642;SDS011;4359;49.358;11.256;2023-08-06T11:28:23;1.23;;;0.43;;
8642;SDS011;4359;49.358;11.256;2023-08-06T11:30:52;2.28;;;0.30;;
8642;SDS011;4359;49.358;11.256;2023-08-06T11:33:22;0.77;;;0.20;;
8642;SDS011;4359;49.358;11.256;2023-08-06T11:35:50;0.60;;;0.28;;
8642;SDS011;4359;49.358;11.256;2023-08-06T11:38:16;0.80;;;0.30;;
8642;SDS011;4359;49.358;11.256;2023-08-06T11:40:44;0.50;;;0.20;;
8642;SDS011;4359;49.358;11.256;2023-08-06T11:43:10;1.55;;;0.40;;
8642;SDS011;4359;49.358;11.256;2023-08-06T11:45:39;0.70;;;0.20;;
8642;SDS011;4359;49.358;11.256;2023-08-06T11:48:06;2.30;;;0.32;;
8642;SDS011;4359;49.358;11.256;2023-08-06T11:50:36;0.70;;;0.30;;
8642;SDS011;4359;49.358;11.256;2023-08-06T11:53:05;2.15;;;0.20;;
8642;SDS011;4359;49.358;11.256;2023-08-06T11:55:31;0.82;;;0.25;;
8642;SDS011;4359;49.358;11.256;2023-08-06T11:57:58;0.80;;;0.30;;
8642;SDS011;4359;49.358;11.256;2023-08-06T12:00:24;0.63;;;0.20;;
8642;SDS011;4359;49.358;11.256;2023-08-06T12:02:51;0.85;;;0.20;;
8642;SDS011;4359;49.358;11.256;2023-08-06T12:05:18;0.60;;;0.30;;
8642;SDS011;4359;49.358;11.256;2023-08-06T12:07:51;0.73;;;0.20;;
8642;SDS011;4359;49.358;11.256;2023-08-06T12:10:18;2.00;;;0.20;;
8642;SDS011;4359;49.358;11.256;2023-08-06T12:12:45;0.40;;;0.15;;
8642;SDS011;4359;49.358;11.256;2023-08-06T12:15:11;0.57;;;0.22;;
8642;SDS011;4359;49.358;11.256;2023-08-06T12:17:37;0.50;;;0.20;;
8642;SDS011;4359;49.358;11.256;2023-08-06T12:20:03;0.70;;;0.20;;
8642;SDS011;4359;49.358;11.256;2023-08-06T12:22:31;0.63;;;0.10;;
8642;SDS011;4359;49.358;11.256;2023-08-06T12:25:07;3.58;;;0.10;;
8642;SDS011;4359;49.358;11.256;2023-08-06T12:27:37;0.30;;;0.10;;
8642;SDS011;4359;49.358;11.256;2023-08-06T12:30:03;1.95;;;0.00;;
8642;SDS011;4359;49.358;11.256;2023-08-06T12:32:29;0.17;;;0.10;;
8642;SDS011;4359;49.358;11.256;2023-08-06T12:34:55;0.65;;;0.10;;
8642;SDS011;4359;49.358;11.256;2023-08-06T12:37:21;0.82;;;0.20;;
8642;SDS011;4359;49.358;11.256;2023-08-06T12:39:48;0.50;;;0.10;;
8642;SDS011;4359;49.358;11.256;2023-08-06T12:42:13;0.30;;;0.13;;
8642;SDS011;4359;49.358;11.256;2023-08-06T12:44:39;0.10;;;0.00;;
8642;SDS011;4359;49.358;11.256;2023-08-06T12:47:05;1.05;;;0.20;;
8642;SDS011;4359;49.358;11.256;2023-08-06T12:49:31;0.38;;;0.10;;
8642;SDS011;4359;49.358;11.256;2023-08-06T12:51:58;0.20;;;0.10;;
8642;SDS011;4359;49.358;11.256;2023-08-06T12:54:25;0.75;;;0.40;;
8642;SDS011;4359;49.358;11.256;2023-08-06T12:56:51;0.40;;;0.10;;
8642;SDS011;4359;49.358;11.256;2023-08-06T12:59:17;0.32;;;0.15;;
8642;SDS011;4359;49.358;11.256;2023-08-06T13:01:43;0.45;;;0.10;;
8642;SDS011;4359;49.358;11.256;2023-08-06T13:04:09;0.40;;;0.20;;
8642;SDS011;4359;49.358;11.256;2023-08-06T13:06:37;0.63;;;0.10;;
8642;SDS011;4359;49.358;11.256;2023-08-06T13:09:08;0.20;;;0.00;;
8642;SDS011;4359;49.358;11.256;2023-08-06T13:11:34;1.17;;;0.20;;
8642;SDS011;4359;49.358;11.256;2023-08-06T13:14:08;2.75;;;0.10;;
8642;SDS011;4359;49.358;11.256;2023-08-06T13:16:35;0.47;;;0.10;;
8642;SDS011;4359;49.358;11.256;2023-08-06T13:19:02;0.20;;;0.08;;
8642;SDS011;4359;49.358;11.256;2023-08-06T13:21:32;1.17;;;0.10;;
8642;SDS011;4359;49.358;11.256;2023-08-06T13:24:21;0.47;;;0.10;;
8642;SDS011;4359;49.358;11.256;2023-08-06T13:26:46;0.45;;;0.10;;
8642;SDS011;4359;49.358;11.256;2023-08-06T13:29:12;0.90;;;0.20;;
8642;SDS011;4359;49.358;11.256;2023-08-06T13:31:37;1.27;;;0.20;;
8642;SDS011;4359;49.358;11.256;2023-08-06T13:34:03;0.95;;;0.20;;
8642;SDS011;4359;49.358;11.256;2023-08-06T13:36:29;1.85;;;0.10;;
8642;SDS011;4359;49.358;11.256;2023-08-06T13:38:56;0.17;;;0.10;;
8642;SDS011;4359;49.358;11.256;2023-08-06T13:41:22;0.10;;;0.10;;
8642;SDS011;4359;49.358;11.256;2023-08-06T13:43:48;2.33;;;0.20;;
8642;SDS011;4359;49.358;11.256;2023-08-06T13:46:13;2.67;;;0.20;;
8642;SDS011;4359;49.358;11.256;2023-08-06T13:48:42;0.45;;;0.20;;
8642;SDS011;4359;49.358;11.256;2023-08-06T13:51:09;3.10;;;0.30;;
8642;SDS011;4359;49.358;11.256;2023-08-06T13:53:36;0.50;;;0.20;;
8642;SDS011;4359;49.358;11.256;2023-08-06T13:56:01;0.93;;;0.20;;
8642;SDS011;4359;49.358;11.256;2023-08-06T13:58:28;2.03;;;0.10;;
8642;SDS011;4359;49.358;11.256;2023-08-06T14:00:53;0.35;;;0.13;;
8642;SDS011;4359;49.358;11.256;2023-08-06T14:03:19;0.38;;;0.15;;
8642;SDS011;4359;49.358;11.256;2023-08-06T14:05:45;0.88;;;0.20;;
8642;SDS011;4359;49.358;11.256;2023-08-06T14:08:11;1.75;;;0.15;;
8642;SDS011;4359;49.358;11.256;2023-08-06T14:10:37;1.73;;;0.10;;
8642;SDS011;4359;49.358;11.256;2023-08-06T14:13:03;0.98;;;0.20;;
8642;SDS011;4359;49.358;11.256;2023-08-06T14:15:28;1.35;;;0.20;;
8642;SDS011;4359;49.358;11.256;2023-08-06T14:17:54;0.45;;;0.20;;
8642;SDS011;4359;49.358;11.256;2023-08-06T14:20:19;0.80;;;0.25;;
8642;SDS011;4359;49.358;11.256;2023-08-06T14:22:45;0.60;;;0.13;;
8642;SDS011;4359;49.358;11.256;2023-08-06T14:25:11;0.30;;;0.20;;
8642;SDS011;4359;49.358;11.256;2023-08-06T14:27:36;0.28;;;0.13;;
8642;SDS011;4359;49.358;11.256;2023-08-06T14:30:04;0.55;;;0.20;;
8642;SDS011;4359;49.358;11.256;2023-08-06T14:32:31;0.35;;;0.20;;
8642;SDS011;4359;49.358;11.256;2023-08-06T14:34:57;0.13;;;0.10;;
8642;SDS011;4359;49.358;11.256;2023-08-06T14:37:23;1.33;;;0.20;;
8642;SDS011;4359;49.358;11.256;2023-08-06T14:39:49;1.42;;;0.30;;
8642;SDS011;4359;49.358;11.256;2023-08-06T14:42:15;1.60;;;0.30;;
8642;SDS011;4359;49.358;11.256;2023-08-06T14:44:41;0.60;;;0.30;;
8642;SDS011;4359;49.358;11.256;2023-08-06T14:47:07;1.27;;;0.40;;
8642;SDS011;4359;49.358;11.256;2023-08-06T14:49:32;0.60;;;0.30;;
8642;SDS011;4359;49.358;11.256;2023-08-06T14:51:58;0.90;;;0.30;;
8642;SDS011;4359;49.358;11.256;2023-08-06T14:54:25;0.98;;;0.40;;
8642;SDS011;4359;49.358;11.256;2023-08-06T14:56:52;1.17;;;0.50;;
8642;SDS011;4359;49.358;11.256;2023-08-06T14:59:18;1.20;;;0.50;;
8642;SDS011;4359;49.358;11.256;2023-08-06T15:01:43;1.83;;;0.70;;
8642;SDS011;4359;49.358;11.256;2023-08-06T15:04:09;0.85;;;0.40;;
8642;SDS011;4359;49.358;11.256;2023-08-06T15:06:34;1.38;;;0.50;;
8642;SDS011;4359;49.358;11.256;2023-08-06T15:09:00;2.72;;;0.57;;